Saint Eleanors, Canada
Current Conditions -  °F | °C
As of 8:00 AM on Wednesday 28 Jan 2015 (Local Time) from CYYG Reporting Station
Freezing Drizzle Freezing Drizzle  
Wind Chill: 16°   Ceiling: 400
Heat Index: 27°   Visibility: 4mi
Dew Point: 25°   Wind: 13mph
Humidity: 93%   Direction: 20°NNE
Pressure: 29.57"   Gusts: 20mph
Location:  46.42°N, 63.82°W
Report Text: CYYG 281200Z 02011G17KT 4SM -FZDZ BR OVC004 M03/M04 A2957 RMK SF8 CIG VRB 3-5 SLP017
Loading
Personal Weather Stations






























Interactive Weather Map New forecast layout! Learn more

10-Day Weather Forecast

Advertisements
Track Severe Weather on mobile